Time;durP1;ratioP1;P1;durP2;ratioP2;P2;SDS_P1;SDS_P2;PMS_P1;PMS_P2;Temp;Humidity;BMP_temperature;BMP_pressure;BME280_temperature;BME280_humidity;BME280_pressure;Samples;Min_cycle;Max_cycle;Signal;HPM_P1;HPM_P2
2021/06/28 00:01:54;;;;;;;25.40;23.90;;;21.90;79.80;;;;;;4975752;28;20573;-79
2021/06/28 00:04:21;;;;;;;25.07;23.77;;;21.80;80.00;;;;;;4974055;28;20573;-79
2021/06/28 00:06:49;;;;;;;25.60;24.20;;;21.70;80.00;;;;;;4998347;28;20892;-79
2021/06/28 00:09:16;;;;;;;25.70;24.30;;;21.60;80.10;;;;;;4980281;28;20466;-79
2021/06/28 00:11:43;;;;;;;23.97;22.80;;;21.40;80.40;;;;;;4980753;28;20554;-79
2021/06/28 00:14:10;;;;;;;25.20;23.90;;;21.40;80.50;;;;;;4982971;28;20502;-79
2021/06/28 00:16:37;;;;;;;24.70;23.40;;;21.40;80.20;;;;;;5000351;28;20493;-79
2021/06/28 00:19:04;;;;;;;25.27;23.87;;;21.30;80.80;;;;;;4991219;28;20891;-79
2021/06/28 00:21:32;;;;;;;23.90;22.70;;;21.20;81.20;;;;;;4971966;28;20565;-79
2021/06/28 00:24:00;;;;;;;24.90;23.60;;;21.30;81.50;;;;;;4976299;28;20980;-80
2021/06/28 00:26:27;;;;;;;25.10;23.80;;;21.20;81.50;;;;;;5003335;28;21096;-79
2021/06/28 00:28:54;;;;;;;24.40;23.10;;;21.20;81.50;;;;;;4973325;28;20468;-79
2021/06/28 00:31:21;;;;;;;24.87;23.37;;;21.20;82.00;;;;;;4974963;28;21072;-80
2021/06/28 00:33:48;;;;;;;24.27;23.07;;;21.20;82.40;;;;;;4996382;28;20474;-79
2021/06/28 00:36:15;;;;;;;24.53;23.20;;;21.10;83.10;;;;;;5014903;28;20486;-79
2021/06/28 00:38:42;;;;;;;24.73;23.33;;;21.10;83.20;;;;;;4988971;28;20553;-79
2021/06/28 00:41:10;;;;;;;23.43;22.23;;;21.10;83.50;;;;;;5009405;28;20505;-79
2021/06/28 00:43:37;;;;;;;23.57;22.30;;;21.00;84.30;;;;;;4970989;28;20533;-79
2021/06/28 00:46:04;;;;;;;23.40;22.30;;;21.00;84.60;;;;;;4991780;28;20480;-79
2021/06/28 00:48:31;;;;;;;23.60;22.30;;;20.90;84.50;;;;;;5003250;28;21036;-79
2021/06/28 00:50:58;;;;;;;23.70;22.40;;;20.90;85.10;;;;;;5046888;28;21087;-80
2021/06/28 00:53:26;;;;;;;23.50;22.30;;;20.90;85.30;;;;;;4977767;28;20942;-80
2021/06/28 00:56:08;;;;;;;23.40;22.00;;;20.90;85.50;;;;;;5035404;28;21016;-80
2021/06/28 00:58:38;;;;;;;22.53;21.33;;;20.80;85.90;;;;;;4989898;28;20546;-80
2021/06/28 01:01:05;;;;;;;23.10;21.90;;;20.80;85.90;;;;;;5012996;28;21122;-80
2021/06/28 01:03:32;;;;;;;23.10;21.80;;;20.80;85.80;;;;;;4998275;28;20478;-80
2021/06/28 01:06:00;;;;;;;23.27;21.97;;;20.80;85.30;;;;;;4996669;28;20855;-80
2021/06/28 01:08:27;;;;;;;23.60;22.40;;;20.70;85.40;;;;;;5000239;28;20474;-80
2021/06/28 01:10:54;;;;;;;22.97;21.83;;;20.80;84.60;;;;;;4970160;28;20469;-80
2021/06/28 01:13:21;;;;;;;23.17;21.77;;;20.80;84.60;;;;;;5018169;28;20460;-80
2021/06/28 01:15:50;;;;;;;23.40;22.20;;;20.90;84.30;;;;;;4964925;28;20500;-81
2021/06/28 01:18:17;;;;;;;23.10;21.80;;;20.80;83.70;;;;;;4975265;28;20450;-79
2021/06/28 01:20:45;;;;;;;23.20;22.00;;;20.90;82.80;;;;;;4989644;28;20461;-79
2021/06/28 01:23:24;;;;;;;23.40;22.10;;;20.90;82.20;;;;;;4984302;28;20469;-79
2021/06/28 01:25:54;;;;;;;23.30;22.10;;;20.90;82.30;;;;;;5020440;28;20477;-80
2021/06/28 01:28:21;;;;;;;23.23;22.00;;;20.90;82.20;;;;;;4974029;28;20482;-81
2021/06/28 01:30:49;;;;;;;23.00;21.80;;;21.00;82.40;;;;;;5029850;28;20510;-80
2021/06/28 01:33:16;;;;;;;23.17;21.97;;;21.00;83.20;;;;;;4986060;28;20473;-79
2021/06/28 01:35:43;;;;;;;23.10;21.87;;;20.90;84.10;;;;;;5041445;28;20470;-80
2021/06/28 01:38:10;;;;;;;22.77;21.67;;;20.90;84.00;;;;;;4989528;28;20469;-79
2021/06/28 01:40:40;;;;;;;23.53;22.30;;;20.90;83.00;;;;;;4969002;28;20895;-79
2021/06/28 01:43:08;;;;;;;24.10;22.90;;;21.00;82.90;;;;;;4981139;28;20988;-79
2021/06/28 01:45:36;;;;;;;24.00;22.80;;;21.00;82.90;;;;;;5006409;28;20588;-79
2021/06/28 01:48:03;;;;;;;24.00;22.80;;;21.00;83.00;;;;;;5007113;28;20514;-79
2021/06/28 01:50:33;;;;;;;23.63;22.30;;;21.00;83.70;;;;;;5056648;28;20505;-79
2021/06/28 01:53:01;;;;;;;23.87;22.57;;;20.90;84.20;;;;;;5008174;28;20486;-79
2021/06/28 01:55:28;;;;;;;22.93;21.83;;;21.00;83.60;;;;;;5017785;28;20508;-79
2021/06/28 01:57:58;;;;;;;23.60;22.40;;;20.90;83.80;;;;;;4990582;28;20613;-80
2021/06/28 02:00:27;;;;;;;23.60;22.20;;;20.90;84.30;;;;;;5034074;28;21364;-79
2021/06/28 02:03:04;;;;;;;23.00;21.83;;;20.90;84.20;;;;;;5014055;28;20471;-79
2021/06/28 02:05:39;;;;;;;22.90;21.80;;;21.00;83.90;;;;;;5017815;28;20917;-79
2021/06/28 02:08:08;;;;;;;23.37;22.17;;;21.00;83.90;;;;;;4995020;28;20898;-79
2021/06/28 02:10:36;;;;;;;23.50;22.30;;;21.00;83.90;;;;;;4990206;28;20463;-79
2021/06/28 02:13:05;;;;;;;22.83;21.73;;;20.90;84.20;;;;;;5022580;28;20944;-79
2021/06/28 02:15:32;;;;;;;23.83;22.53;;;20.90;84.30;;;;;;4978212;28;20922;-79
2021/06/28 02:18:00;;;;;;;22.50;21.23;;;20.90;84.30;;;;;;4979738;28;20851;-80
2021/06/28 02:20:29;;;;;;;22.87;21.67;;;20.90;84.90;;;;;;5010106;28;20465;-80
2021/06/28 02:23:12;;;;;;;25.60;24.30;;;20.80;85.80;;;;;;5023309;28;20489;-79
2021/06/28 02:25:39;;;;;;;22.83;21.63;;;20.70;86.40;;;;;;5005272;28;20487;-80
2021/06/28 02:28:07;;;;;;;22.20;21.00;;;20.60;86.80;;;;;;4982915;28;20498;-80
2021/06/28 02:30:34;;;;;;;26.70;25.30;;;20.50;87.30;;;;;;5015820;28;20468;-79
2021/06/28 02:33:01;;;;;;;22.90;21.60;;;20.40;88.00;;;;;;5025355;28;20460;-79
2021/06/28 02:35:28;;;;;;;21.90;20.80;;;20.40;88.10;;;;;;5016337;28;20541;-80
2021/06/28 02:37:55;;;;;;;21.77;20.67;;;20.30;88.20;;;;;;4986524;28;20482;-79
2021/06/28 02:40:22;;;;;;;23.00;21.73;;;20.20;88.00;;;;;;5010506;28;20474;-80
2021/06/28 02:42:49;;;;;;;21.83;20.70;;;20.20;88.90;;;;;;5001675;28;20579;-80
2021/06/28 02:45:17;;;;;;;21.77;20.77;;;20.10;89.10;;;;;;5023080;28;20478;-80
2021/06/28 02:47:44;;;;;;;22.20;21.10;;;20.20;88.90;;;;;;5001062;28;20996;-79
2021/06/28 02:50:13;;;;;;;21.90;20.77;;;20.20;88.70;;;;;;5016556;28;20459;-79
2021/06/28 02:52:41;;;;;;;25.63;24.33;;;20.20;88.70;;;;;;4976787;28;20466;-79
2021/06/28 02:55:09;;;;;;;21.80;20.80;;;20.20;88.70;;;;;;5048144;28;20478;-80
2021/06/28 02:57:36;;;;;;;23.07;21.53;;;20.20;88.70;;;;;;5029876;28;20546;-79
2021/06/28 03:00:06;;;;;;;21.13;20.03;;;20.20;88.90;;;;;;5032123;28;20562;-79
2021/06/28 03:02:35;;;;;;;21.83;20.63;;;20.20;88.90;;;;;;4972035;28;20524;-79
2021/06/28 03:05:02;;;;;;;21.83;20.73;;;20.30;88.70;;;;;;5059919;28;20525;-80
2021/06/28 03:07:28;;;;;;;22.20;20.90;;;20.30;88.70;;;;;;5007547;28;20471;-80
2021/06/28 03:09:55;;;;;;;23.53;21.87;;;20.30;88.70;;;;;;5001026;28;20550;-79
2021/06/28 03:12:22;;;;;;;23.60;22.40;;;20.30;88.90;;;;;;4972700;28;20467;-80
2021/06/28 03:14:49;;;;;;;24.27;23.07;;;20.40;88.90;;;;;;4990056;28;21012;-79
2021/06/28 03:17:16;;;;;;;24.43;23.03;;;20.40;88.90;;;;;;5043624;28;20533;-79
2021/06/28 03:19:45;;;;;;;25.97;24.63;;;20.40;88.50;;;;;;5022397;28;20458;-79
2021/06/28 03:22:11;;;;;;;23.00;21.80;;;20.50;88.50;;;;;;5036592;28;21055;-80
2021/06/28 03:24:38;;;;;;;24.50;23.10;;;20.40;88.30;;;;;;4967283;28;20527;-77
2021/06/28 03:27:06;;;;;;;22.90;21.60;;;20.50;88.20;;;;;;4991650;28;20470;-79
2021/06/28 03:29:33;;;;;;;25.23;23.90;;;20.50;88.10;;;;;;5058233;28;20456;-80
2021/06/28 03:32:00;;;;;;;24.33;22.93;;;20.50;88.30;;;;;;4998958;28;21046;-80
2021/06/28 03:34:27;;;;;;;26.30;24.80;;;20.50;88.20;;;;;;4996856;28;20466;-80
2021/06/28 03:36:55;;;;;;;23.20;22.00;;;20.50;88.30;;;;;;4987224;28;20530;-80
2021/06/28 03:39:22;;;;;;;23.90;22.70;;;20.50;88.40;;;;;;5014514;28;20497;-80
2021/06/28 03:41:49;;;;;;;24.60;23.30;;;20.60;88.20;;;;;;4987776;28;20476;-80
2021/06/28 03:44:16;;;;;;;28.00;26.53;;;20.60;88.10;;;;;;4972443;28;20566;-79
2021/06/28 03:46:42;;;;;;;23.67;22.47;;;20.60;88.00;;;;;;5013161;28;20551;-80
2021/06/28 03:49:09;;;;;;;23.20;22.00;;;20.60;88.10;;;;;;4996708;28;20547;-82
2021/06/28 03:51:36;;;;;;;24.30;23.00;;;20.70;87.70;;;;;;4963072;28;20984;-81
2021/06/28 03:54:05;;;;;;;22.20;21.00;;;20.70;87.50;;;;;;5046511;28;20473;-80
2021/06/28 03:56:32;;;;;;;29.77;27.93;;;20.60;87.30;;;;;;4970727;28;20462;-80
2021/06/28 03:58:59;;;;;;;24.70;23.30;;;20.70;87.00;;;;;;4975267;28;20464;-80
2021/06/28 04:01:26;;;;;;;23.43;22.23;;;20.70;86.60;;;;;;5045522;28;20464;-80
2021/06/28 04:03:54;;;;;;;24.03;22.83;;;20.80;86.40;;;;;;5021217;28;20478;-80
2021/06/28 04:06:21;;;;;;;25.73;24.33;;;20.70;86.90;;;;;;4993224;28;20915;-80
2021/06/28 04:08:48;;;;;;;22.87;21.70;;;20.70;87.40;;;;;;4975470;28;20541;-80
2021/06/28 04:11:18;;;;;;;24.33;23.03;;;20.70;87.60;;;;;;4971313;28;20489;-79
2021/06/28 04:13:45;;;;;;;23.57;22.27;;;20.70;87.50;;;;;;4995541;28;20531;-80
2021/06/28 04:16:12;;;;;;;24.03;22.73;;;20.70;87.60;;;;;;5019993;28;20462;-80
2021/06/28 04:18:39;;;;;;;24.50;23.10;;;20.70;87.80;;;;;;4992592;28;20461;-80
2021/06/28 04:21:08;;;;;;;24.27;22.63;;;20.70;87.50;;;;;;4987188;28;20461;-80
2021/06/28 04:23:35;;;;;;;22.57;21.40;;;20.70;87.20;;;;;;4983358;28;20569;-80
2021/06/28 04:26:02;;;;;;;24.37;22.87;;;20.70;87.30;;;;;;5026710;28;20513;-80
2021/06/28 04:28:30;;;;;;;24.27;22.87;;;20.70;87.30;;;;;;5004504;28;20566;-80
2021/06/28 04:30:57;;;;;;;24.10;22.80;;;20.70;87.30;;;;;;5028753;28;20522;-80
2021/06/28 04:33:24;;;;;;;27.40;25.90;;;20.80;86.90;;;;;;5029808;28;20485;-80
2021/06/28 04:35:51;;;;;;;23.80;22.50;;;20.70;87.10;;;;;;5036282;28;20501;-80
2021/06/28 04:38:18;;;;;;;25.77;24.00;;;20.70;87.30;;;;;;5020643;28;20859;-80
2021/06/28 04:40:47;;;;;;;26.33;24.83;;;20.80;87.10;;;;;;4986703;28;20572;-80
2021/06/28 04:43:15;;;;;;;25.23;23.83;;;20.90;86.60;;;;;;5007112;28;20485;-81
2021/06/28 04:45:43;;;;;;;23.88;22.38;;;21.10;86.10;;;;;;5003475;28;20606;-78
2021/06/28 04:48:10;;;;;;;25.83;24.43;;;21.30;85.40;;;;;;5001071;28;20219;-78
2021/06/28 04:50:37;;;;;;;28.10;26.60;;;21.20;85.40;;;;;;4974434;28;20466;-81
2021/06/28 04:53:04;;;;;;;25.70;24.30;;;21.20;85.90;;;;;;4967665;28;20521;-79
2021/06/28 04:55:31;;;;;;;24.20;22.90;;;21.10;86.40;;;;;;4962298;28;20481;-79
2021/06/28 04:57:58;;;;;;;26.40;25.00;;;21.10;86.80;;;;;;4961886;28;20557;-76
2021/06/28 05:00:26;;;;;;;25.97;24.57;;;21.20;86.20;;;;;;4960552;28;20586;-82
2021/06/28 05:02:54;;;;;;;25.10;23.50;;;21.30;86.10;;;;;;4966344;28;20877;-78
2021/06/28 05:05:22;;;;;;;24.80;23.60;;;21.20;86.10;;;;;;4965256;28;20488;-80
2021/06/28 05:07:49;;;;;;;25.33;23.63;;;21.30;86.00;;;;;;4958208;28;20523;-77
2021/06/28 05:10:16;;;;;;;24.90;23.07;;;21.40;85.60;;;;;;4957065;28;20964;-77
2021/06/28 05:12:44;;;;;;;26.37;24.40;;;21.40;85.80;;;;;;4965971;28;20458;-75
2021/06/28 05:15:12;;;;;;;24.27;22.93;;;21.60;85.30;;;;;;4962805;28;20875;-76
2021/06/28 05:17:39;;;;;;;24.80;23.00;;;21.50;85.10;;;;;;4960347;28;20466;-76
2021/06/28 05:20:10;;;;;;;26.57;25.07;;;21.40;85.40;;;;;;4957940;28;20817;-75
2021/06/28 05:22:38;;;;;;;26.07;24.57;;;21.50;85.30;;;;;;4961008;28;20466;-76
2021/06/28 05:25:06;;;;;;;26.00;24.50;;;21.60;85.10;;;;;;4956766;28;20854;-76
2021/06/28 05:27:34;;;;;;;26.93;25.30;;;21.60;85.20;;;;;;4982346;28;20483;-75
2021/06/28 05:30:02;;;;;;;25.80;24.40;;;21.70;85.30;;;;;;4983701;28;20466;-75
2021/06/28 05:32:29;;;;;;;29.87;28.00;;;21.90;84.60;;;;;;4962794;28;20821;-76
2021/06/28 05:34:56;;;;;;;29.13;27.43;;;22.00;83.90;;;;;;4963371;28;21020;-81
2021/06/28 05:37:24;;;;;;;28.17;26.57;;;22.20;83.40;;;;;;4961851;28;20550;-77
2021/06/28 05:39:51;;;;;;;26.52;24.92;;;22.30;82.80;;;;;;4987115;28;20872;-77
2021/06/28 05:42:18;;;;;;;27.53;25.77;;;22.70;81.40;;;;;;4993526;28;20263;-78
2021/06/28 05:44:45;;;;;;;27.20;25.70;;;22.80;80.50;;;;;;4984729;28;20923;-76
2021/06/28 05:47:14;;;;;;;28.53;27.03;;;22.90;80.40;;;;;;4962448;28;21016;-77
2021/06/28 05:49:42;;;;;;;28.60;27.00;;;23.00;79.10;;;;;;4965028;28;20456;-79
2021/06/28 05:52:11;;;;;;;49.27;31.27;;;23.10;78.60;;;;;;4961365;28;20536;-78
2021/06/28 05:54:40;;;;;;;28.53;27.03;;;23.20;78.60;;;;;;4943217;28;21045;-77
2021/06/28 05:57:08;;;;;;;28.53;26.73;;;23.30;78.00;;;;;;4953290;28;20661;-76
2021/06/28 05:59:35;;;;;;;29.50;27.90;;;23.60;77.50;;;;;;4959785;28;20455;-79
2021/06/28 06:02:02;;;;;;;28.73;26.93;;;23.70;75.20;;;;;;4964571;28;20844;-79
2021/06/28 06:04:29;;;;;;;30.43;28.63;;;23.60;75.80;;;;;;4965092;28;20515;-79
2021/06/28 06:06:56;;;;;;;31.13;29.23;;;23.60;76.30;;;;;;4964514;28;20514;-77
2021/06/28 06:09:23;;;;;;;29.53;27.80;;;23.70;75.70;;;;;;4960374;28;20469;-77
2021/06/28 06:11:51;;;;;;;30.33;28.73;;;23.80;75.40;;;;;;4962434;28;20499;-76
2021/06/28 06:14:18;;;;;;;29.47;27.87;;;23.70;75.20;;;;;;4964241;28;20482;-77
2021/06/28 06:16:45;;;;;;;32.70;30.90;;;23.70;75.20;;;;;;4962465;28;20459;-77
2021/06/28 06:19:13;;;;;;;31.87;30.00;;;23.80;75.30;;;;;;4963780;28;20554;-77
2021/06/28 06:21:39;;;;;;;33.43;31.30;;;23.80;75.00;;;;;;4964698;28;20481;-78
2021/06/28 06:24:07;;;;;;;30.73;29.00;;;24.00;74.60;;;;;;4962073;28;20489;-78
2021/06/28 06:26:34;;;;;;;29.30;27.70;;;24.30;73.40;;;;;;4961645;28;20574;-79
2021/06/28 06:29:02;;;;;;;32.43;30.73;;;24.20;72.50;;;;;;4962468;28;20588;-78
2021/06/28 06:31:29;;;;;;;30.03;28.37;;;24.00;73.30;;;;;;4957502;28;20463;-79
2021/06/28 06:33:56;;;;;;;30.07;28.47;;;24.20;72.80;;;;;;4952607;28;20478;-79
2021/06/28 06:36:24;;;;;;;29.73;28.13;;;24.30;72.40;;;;;;4964344;28;20459;-80
2021/06/28 06:38:50;;;;;;;29.00;27.30;;;24.30;72.40;;;;;;4959902;28;20517;-78
2021/06/28 06:41:19;;;;;;;31.33;29.10;;;24.20;72.10;;;;;;4976367;28;20462;-78
2021/06/28 06:43:45;;;;;;;29.13;27.53;;;24.30;71.80;;;;;;4971940;28;20505;-79
2021/06/28 06:46:14;;;;;;;30.57;28.70;;;24.40;71.60;;;;;;4982134;28;20481;-78
2021/06/28 06:48:41;;;;;;;30.97;29.17;;;24.60;71.80;;;;;;4953403;28;20501;-79
2021/06/28 06:51:08;;;;;;;30.70;29.10;;;24.80;71.40;;;;;;4963540;28;20459;-78
2021/06/28 06:53:35;;;;;;;29.17;27.37;;;25.00;70.60;;;;;;4966116;28;20466;-77
2021/06/28 06:56:05;;;;;;;31.70;29.80;;;25.00;69.40;;;;;;4965304;28;20451;-81
2021/06/28 06:58:35;;;;;;;30.10;28.30;;;25.10;68.80;;;;;;4970280;28;20537;-81
2021/06/28 07:01:03;;;;;;;31.70;29.90;;;25.00;69.20;;;;;;4966968;28;20489;-81
2021/06/28 07:03:31;;;;;;;32.07;30.37;;;24.90;69.10;;;;;;4965569;28;20498;-79
2021/06/28 07:06:00;;;;;;;30.40;28.70;;;25.00;68.80;;;;;;4963816;28;20482;-79
2021/06/28 07:08:28;;;;;;;30.40;28.60;;;24.90;68.60;;;;;;4965388;28;20462;-78
2021/06/28 07:10:56;;;;;;;30.53;28.83;;;25.00;68.50;;;;;;4964720;28;20833;-78
2021/06/28 07:13:25;;;;;;;29.77;28.10;;;25.10;68.20;;;;;;4958070;28;20462;-80
2021/06/28 07:15:52;;;;;;;32.10;30.30;;;25.20;68.30;;;;;;4968462;28;20619;-78
2021/06/28 07:18:19;;;;;;;32.10;30.30;;;25.10;68.80;;;;;;4964589;28;20462;-78
2021/06/28 07:20:48;;;;;;;32.87;31.03;;;25.10;69.20;;;;;;4968377;28;20465;-79
2021/06/28 07:23:15;;;;;;;31.00;29.30;;;25.30;68.60;;;;;;4981387;28;21187;-79
2021/06/28 07:25:42;;;;;;;32.30;30.30;;;25.40;67.80;;;;;;4969618;28;20573;-79
2021/06/28 07:28:10;;;;;;;32.20;30.30;;;25.50;67.00;;;;;;4969339;28;20470;-78
2021/06/28 07:30:37;;;;;;;31.10;29.40;;;25.70;66.90;;;;;;4970963;28;21016;-78
2021/06/28 07:33:05;;;;;;;32.27;30.40;;;25.70;66.50;;;;;;4962114;28;20581;-78
2021/06/28 07:35:31;;;;;;;33.30;31.50;;;25.70;66.40;;;;;;4962730;28;20501;-78
2021/06/28 07:38:02;;;;;;;32.70;30.80;;;25.70;65.60;;;;;;4961472;28;20455;-79
2021/06/28 07:40:29;;;;;;;31.13;29.43;;;25.90;66.10;;;;;;4970170;28;20467;-79
2021/06/28 07:42:56;;;;;;;31.40;29.60;;;26.00;66.30;;;;;;4956467;28;20534;-78
2021/06/28 07:45:24;;;;;;;32.90;31.10;;;26.00;65.80;;;;;;4964197;28;20473;-79
2021/06/28 07:47:51;;;;;;;33.80;31.70;;;26.00;64.90;;;;;;4963676;28;20466;-78
2021/06/28 07:50:19;;;;;;;36.43;34.43;;;26.00;65.10;;;;;;4969375;28;20458;-79
2021/06/28 07:52:46;;;;;;;32.03;30.33;;;26.00;64.30;;;;;;4972831;28;20899;-80
2021/06/28 07:55:16;;;;;;;30.83;29.13;;;25.90;64.40;;;;;;4973550;28;20467;-79
2021/06/28 07:57:43;;;;;;;31.90;30.00;;;25.70;63.80;;;;;;4969170;28;20479;-80
2021/06/28 08:00:13;;;;;;;34.00;32.10;;;25.90;63.90;;;;;;4962657;28;20454;-80
2021/06/28 08:02:40;;;;;;;32.87;31.07;;;26.00;63.00;;;;;;4969778;28;20493;-80
2021/06/28 08:05:08;;;;;;;31.97;29.87;;;26.30;61.10;;;;;;4970246;28;20487;-80
2021/06/28 08:07:35;;;;;;;33.03;31.23;;;26.40;60.40;;;;;;4974520;28;20573;-78
2021/06/28 08:10:06;;;;;;;33.10;31.50;;;26.40;61.20;;;;;;4972937;28;20454;-77
2021/06/28 08:12:34;;;;;;;30.83;29.13;;;26.50;59.20;;;;;;4960878;28;20469;-78
2021/06/28 08:15:02;;;;;;;32.00;30.20;;;26.60;59.60;;;;;;4963269;28;20492;-76
2021/06/28 08:17:29;;;;;;;33.30;31.50;;;26.70;59.70;;;;;;4963337;28;20994;-76
2021/06/28 08:19:56;;;;;;;33.40;31.50;;;27.00;58.90;;;;;;4953392;28;20470;-77
2021/06/28 08:22:23;;;;;;;33.73;31.63;;;27.20;58.90;;;;;;4961954;28;20467;-77
2021/06/28 08:24:50;;;;;;;32.93;30.83;;;27.40;58.40;;;;;;4963626;28;20597;-76
2021/06/28 08:27:17;;;;;;;33.20;31.30;;;27.60;58.50;;;;;;4964039;28;20971;-76
2021/06/28 08:29:46;;;;;;;33.03;31.13;;;27.80;57.70;;;;;;4964930;28;20576;-75
2021/06/28 08:32:13;;;;;;;32.23;30.43;;;27.90;57.60;;;;;;4966070;28;20470;-77
2021/06/28 08:34:43;;;;;;;30.63;28.93;;;28.00;57.40;;;;;;4966275;28;20520;-78
2021/06/28 08:37:14;;;;;;;30.60;28.70;;;28.00;56.80;;;;;;4965229;28;20466;-77
2021/06/28 08:39:41;;;;;;;32.80;30.90;;;28.00;57.10;;;;;;4966275;28;21142;-78
2021/06/28 08:42:11;;;;;;;31.47;29.70;;;28.20;57.10;;;;;;4959994;28;20484;-79
2021/06/28 08:44:39;;;;;;;32.83;30.90;;;28.30;56.60;;;;;;4962732;28;20581;-78
2021/06/28 08:47:07;;;;;;;35.57;33.03;;;28.60;56.70;;;;;;4963762;28;20497;-77
2021/06/28 08:49:35;;;;;;;33.50;31.50;;;28.70;56.40;;;;;;4965925;28;20458;-79
2021/06/28 08:52:02;;;;;;;32.93;31.13;;;28.70;54.10;;;;;;4964598;28;20466;-76
2021/06/28 08:54:29;;;;;;;31.60;29.70;;;28.80;52.50;;;;;;4963930;28;20470;-76
2021/06/28 08:56:57;;;;;;;33.60;31.70;;;28.60;52.90;;;;;;4964766;28;21174;-78
2021/06/28 08:59:24;;;;;;;33.70;31.80;;;28.30;54.60;;;;;;4968012;28;21186;-78
2021/06/28 09:01:51;;;;;;;33.17;31.27;;;28.20;54.20;;;;;;4964552;28;20577;-77
2021/06/28 09:04:21;;;;;;;31.43;29.73;;;28.30;54.30;;;;;;4964926;28;20482;-78
2021/06/28 09:06:48;;;;;;;32.93;30.90;;;28.50;53.70;;;;;;4965481;28;20482;-78
2021/06/28 09:09:16;;;;;;;36.60;34.60;;;28.80;54.00;;;;;;4966267;28;21306;-79
2021/06/28 09:11:45;;;;;;;32.90;30.80;;;29.10;53.30;;;;;;4968423;28;20495;-80
2021/06/28 09:14:13;;;;;;;32.73;30.90;;;29.10;52.90;;;;;;4966103;28;20485;-81
2021/06/28 09:16:43;;;;;;;31.50;29.80;;;29.20;52.80;;;;;;4966062;28;20951;-79
2021/06/28 09:19:13;;;;;;;39.10;36.70;;;29.30;52.50;;;;;;4972442;28;20883;-78
2021/06/28 09:21:49;;;;;;;34.90;32.40;;;29.40;52.80;;;;;;4965117;28;20522;-78
2021/06/28 09:24:29;;;;;;;33.90;31.73;;;29.60;52.70;;;;;;4965055;28;20482;-78
2021/06/28 09:26:58;;;;;;;33.90;31.40;;;29.80;52.30;;;;;;4962805;28;20557;-78
2021/06/28 09:29:35;;;;;;;33.27;31.00;;;30.00;52.40;;;;;;4964445;28;20581;-78
2021/06/28 09:32:09;;;;;;;33.87;31.87;;;30.10;52.50;;;;;;4974553;28;20571;-79
2021/06/28 09:34:37;;;;;;;35.33;33.00;;;29.80;51.90;;;;;;4972738;28;20486;-78
2021/06/28 09:37:11;;;;;;;34.40;31.90;;;29.70;52.50;;;;;;4956316;28;20550;-78
2021/06/28 09:39:41;;;;;;;32.70;30.60;;;29.80;52.40;;;;;;4950794;28;20463;-76
2021/06/28 09:42:13;;;;;;;31.40;29.40;;;30.00;52.30;;;;;;4958760;28;20466;-76
2021/06/28 09:44:42;;;;;;;31.77;29.97;;;29.60;52.60;;;;;;4963096;28;20563;-77
2021/06/28 09:47:12;;;;;;;32.10;30.30;;;29.70;52.70;;;;;;4971052;28;20471;-78
2021/06/28 09:49:41;;;;;;;31.30;29.50;;;30.10;50.80;;;;;;4955180;28;20458;-77
2021/06/28 09:52:10;;;;;;;32.10;30.30;;;30.10;51.00;;;;;;4965133;28;20467;-77
2021/06/28 09:54:41;;;;;;;31.30;29.43;;;30.10;50.70;;;;;;4965177;28;20570;-77
2021/06/28 09:57:09;;;;;;;31.97;30.23;;;30.00;50.60;;;;;;4963126;28;20479;-78
2021/06/28 09:59:38;;;;;;;32.93;30.70;;;29.90;49.80;;;;;;4979107;28;20832;-79
2021/06/28 10:02:18;;;;;;;32.33;30.53;;;29.90;49.00;;;;;;4964320;28;20474;-78
2021/06/28 10:04:54;;;;;;;33.57;31.67;;;29.70;49.50;;;;;;4960444;28;20494;-77
2021/06/28 10:07:25;;;;;;;32.00;30.10;;;29.50;49.80;;;;;;4960882;28;20489;-77
2021/06/28 10:10:11;;;;;;;30.90;29.20;;;29.50;50.90;;;;;;4962837;28;20465;-74
2021/06/28 10:12:40;;;;;;;31.60;29.60;;;29.50;51.40;;;;;;4957559;28;20469;-77
2021/06/28 10:15:09;;;;;;;31.23;29.33;;;29.70;52.30;;;;;;4961990;28;20578;-75
2021/06/28 10:17:37;;;;;;;33.70;31.70;;;29.70;51.40;;;;;;4962695;28;20582;-76
2021/06/28 10:20:05;;;;;;;33.33;30.90;;;29.70;51.50;;;;;;4970290;28;20533;-76
2021/06/28 10:22:35;;;;;;;32.57;30.37;;;29.80;53.00;;;;;;4961985;28;20798;-77
2021/06/28 10:25:02;;;;;;;32.03;30.00;;;29.90;52.70;;;;;;4958417;28;20482;-77
2021/06/28 10:27:31;;;;;;;30.90;29.10;;;30.20;50.40;;;;;;4957988;28;20589;-77
2021/06/28 10:29:59;;;;;;;36.50;34.40;;;30.30;50.30;;;;;;4955262;28;20467;-77
2021/06/28 10:32:30;;;;;;;31.60;29.70;;;30.30;50.30;;;;;;4968039;28;20465;-77
2021/06/28 10:35:00;;;;;;;35.30;33.20;;;30.30;50.00;;;;;;4961466;28;20565;-77
2021/06/28 10:37:37;;;;;;;33.70;31.50;;;30.10;50.10;;;;;;4962477;28;21083;-77
2021/06/28 10:40:12;;;;;;;33.63;31.73;;;29.80;51.10;;;;;;4968952;28;20463;-77
2021/06/28 10:42:41;;;;;;;33.40;31.10;;;29.70;51.10;;;;;;4962871;28;21246;-78
2021/06/28 10:45:10;;;;;;;33.33;31.43;;;29.80;51.70;;;;;;4962928;28;20510;-78
2021/06/28 10:47:38;;;;;;;33.23;31.17;;;30.00;51.00;;;;;;4960862;28;20585;-77
2021/06/28 10:50:07;;;;;;;33.20;31.30;;;30.00;50.50;;;;;;4961091;28;21057;-77
2021/06/28 10:52:52;;;;;;;32.00;30.10;;;30.10;50.50;;;;;;4961815;28;20462;-77
2021/06/28 10:55:40;;;;;;;32.33;30.43;;;30.10;50.90;;;;;;4962460;28;20478;-77
2021/06/28 10:58:35;;;;;;;33.03;31.13;;;30.40;50.70;;;;;;4958038;28;21203;-77
2021/06/28 11:01:09;;;;;;;34.47;31.80;;;30.50;50.10;;;;;;4962024;28;20463;-77
2021/06/28 11:03:37;;;;;;;31.70;29.90;;;30.60;50.10;;;;;;4961370;28;20531;-77
2021/06/28 11:06:21;;;;;;;34.27;32.20;;;30.90;48.40;;;;;;4962862;28;20446;-78
2021/06/28 11:09:05;;;;;;;34.57;32.20;;;30.90;48.50;;;;;;4962928;28;20490;-78
2021/06/28 11:11:57;;;;;;;34.53;32.43;;;30.90;48.40;;;;;;4961657;28;20483;-78
2021/06/28 11:14:55;;;;;;;32.70;30.83;;;30.80;49.00;;;;;;4960284;28;20486;-77
2021/06/28 11:17:25;;;;;;;33.40;31.40;;;30.70;49.00;;;;;;4960825;28;20459;-77
2021/06/28 11:20:05;;;;;;;32.93;30.93;;;30.50;49.80;;;;;;4962244;28;20462;-77
2021/06/28 11:22:37;;;;;;;32.33;30.47;;;30.80;50.00;;;;;;4966898;28;20466;-77
2021/06/28 11:25:13;;;;;;;35.47;33.27;;;30.70;49.90;;;;;;4961837;28;21026;-79
2021/06/28 11:27:43;;;;;;;32.70;30.63;;;31.00;49.70;;;;;;4961219;28;20482;-78
2021/06/28 11:30:20;;;;;;;35.40;33.50;;;31.10;49.10;;;;;;4959997;28;21223;-77
2021/06/28 11:33:01;;;;;;;36.70;34.40;;;30.90;49.00;;;;;;4961213;28;20469;-77
2021/06/28 11:35:38;;;;;;;36.17;33.83;;;30.70;49.40;;;;;;4961556;28;20505;-76
2021/06/28 11:38:24;;;;;;;33.40;31.50;;;30.70;49.70;;;;;;4962071;28;20462;-79
2021/06/28 11:40:54;;;;;;;37.43;35.03;;;30.80;50.10;;;;;;4963819;28;20498;-77
2021/06/28 11:43:39;;;;;;;34.13;32.23;;;31.00;49.50;;;;;;4960908;28;20467;-78
2021/06/28 11:46:08;;;;;;;38.43;36.13;;;30.80;50.10;;;;;;4975020;28;20469;-77
2021/06/28 11:48:37;;;;;;;36.60;34.50;;;30.70;50.50;;;;;;4963454;28;20488;-78
2021/06/28 11:51:14;;;;;;;35.03;32.97;;;30.80;50.20;;;;;;4965993;28;20513;-77
2021/06/28 11:53:42;;;;;;;36.20;34.13;;;31.00;49.20;;;;;;4965996;28;20474;-78
2021/06/28 11:56:20;;;;;;;37.10;34.90;;;31.20;49.10;;;;;;4964301;28;20469;-79
2021/06/28 11:58:59;;;;;;;36.27;34.17;;;31.20;49.20;;;;;;4969022;28;20470;-79
2021/06/28 12:01:29;;;;;;;36.20;33.80;;;31.10;49.70;;;;;;4967291;28;20470;-78
2021/06/28 12:03:56;;;;;;;34.47;32.47;;;31.20;49.00;;;;;;4965929;28;20911;-78
2021/06/28 12:06:27;;;;;;;37.10;34.73;;;31.10;49.30;;;;;;4979072;28;20458;-78
2021/06/28 12:09:05;;;;;;;36.07;33.97;;;31.00;50.00;;;;;;4964821;28;20497;-76
2021/06/28 12:11:33;;;;;;;34.43;32.37;;;31.10;49.90;;;;;;4964653;28;20467;-77
2021/06/28 12:14:00;;;;;;;37.20;34.90;;;31.50;48.80;;;;;;4965789;28;20478;-76
2021/06/28 12:16:29;;;;;;;32.90;31.00;;;31.70;48.40;;;;;;4960468;28;20492;-76
2021/06/28 12:19:04;;;;;;;34.30;32.40;;;31.80;48.80;;;;;;4962457;28;20474;-76
2021/06/28 12:21:32;;;;;;;35.30;33.37;;;31.80;49.80;;;;;;4962521;28;20470;-77
2021/06/28 12:24:01;;;;;;;35.50;33.50;;;31.70;50.00;;;;;;4952570;28;20475;-77
2021/06/28 12:26:28;;;;;;;32.63;30.83;;;31.80;49.70;;;;;;4946355;28;20459;-77
2021/06/28 12:28:57;;;;;;;34.77;32.67;;;32.00;49.90;;;;;;4971257;28;21062;-77
2021/06/28 12:31:24;;;;;;;34.60;32.37;;;32.30;48.20;;;;;;4961245;28;20466;-77
2021/06/28 12:33:56;;;;;;;37.23;34.97;;;32.20;49.00;;;;;;4965245;28;20478;-77
2021/06/28 12:36:23;;;;;;;36.20;34.10;;;32.20;48.70;;;;;;4969313;28;20580;-77
2021/06/28 12:38:59;;;;;;;34.90;32.90;;;32.20;49.10;;;;;;4965546;28;20458;-77